PAF211 RPVA-RPVM
Flight info
| Callsign | PAF211 |
|---|---|
| Flight time | N/A |
| Altitude | 6000 |
| Route | LARYO5R LARYO LARYO3N |
| Aircraft | H60/L-DGILORTUVY/SB2 |
Departure
| Time | 2026-04-25 03:26 |
|---|---|
| Airport | Daniel Z. Romualdez Airport (RPVA) |
Arrival
| Time | N/A |
|---|---|
| Airport | Mactan Cebu International Airport (RPVM) |
| Time | Latitude | Longitude | Altitude | Speed | Heading |
|---|---|---|---|---|---|
| 2026-04-25 03:03 | 11.22590 | 125.02642 | 11 ft | 0 kts | 308° |
| 2026-04-25 03:25 | 11.22615 | 125.02654 | 12 ft | 9 kts | 110° |
| 2026-04-25 03:25 | 11.22535 | 125.02701 | 21 ft | 16 kts | 35° |
| 2026-04-25 03:25 | 11.22598 | 125.02780 | 68 ft | 32 kts | 346° |
| 2026-04-25 03:26 | 11.23024 | 125.02786 | 242 ft | 91 kts | 13° |
| 2026-04-25 03:26 | 11.23765 | 125.02849 | 545 ft | 117 kts | 12° |
| 2026-04-25 03:26 | 11.24577 | 125.02757 | 970 ft | 113 kts | 343° |
| 2026-04-25 03:26 | 11.25037 | 125.02151 | 1512 ft | 110 kts | 288° |
| 2026-04-25 03:27 | 11.24881 | 125.01420 | 2056 ft | 100 kts | 237° |
| 2026-04-25 03:27 | 11.24597 | 125.00751 | 2693 ft | 103 kts | 242° |
| 2026-04-25 03:27 | 11.24219 | 125.00128 | 3272 ft | 105 kts | 237° |
| 2026-04-25 03:27 | 11.23841 | 124.99486 | 3775 ft | 103 kts | 240° |
| 2026-04-25 03:28 | 11.23606 | 124.98740 | 4132 ft | 111 kts | 252° |
| 2026-04-25 03:28 | 11.23374 | 124.97993 | 4520 ft | 109 kts | 252° |
| 2026-04-25 03:28 | 11.23187 | 124.97215 | 4728 ft | 114 kts | 18° |
| 2026-04-25 03:28 | 11.23439 | 124.96528 | 4869 ft | 110 kts | 282° |
| 2026-04-25 03:29 | 11.23748 | 124.95830 | 5255 ft | 121 kts | 278° |
| 2026-04-25 03:29 | 11.23880 | 124.94994 | 5525 ft | 116 kts | 263° |
| 2026-04-25 03:29 | 11.23961 | 124.94155 | 5839 ft | 123 kts | 266° |
| 2026-04-25 03:29 | 11.23968 | 124.93225 | 5840 ft | 140 kts | 264° |
| 2026-04-25 03:30 | 11.23874 | 124.92241 | 5873 ft | 132 kts | 257° |
| 2026-04-25 03:30 | 11.23789 | 124.91353 | 5862 ft | 128 kts | 257° |
| 2026-04-25 03:30 | 11.23588 | 124.90444 | 5869 ft | 134 kts | 257° |
| 2026-04-25 03:30 | 11.23383 | 124.89501 | 5879 ft | 138 kts | 258° |
| 2026-04-25 03:31 | 11.23172 | 124.88534 | 5879 ft | 144 kts | 258° |
| 2026-04-25 03:31 | 11.22967 | 124.87532 | 5869 ft | 146 kts | 258° |
| 2026-04-25 03:31 | 11.22760 | 124.86511 | 5874 ft | 144 kts | 258° |
| 2026-04-25 03:31 | 11.22559 | 124.85519 | 5881 ft | 146 kts | 258° |
| 2026-04-25 03:32 | 11.22351 | 124.84495 | 5886 ft | 149 kts | 259° |
| 2026-04-25 03:32 | 11.22144 | 124.83463 | 5877 ft | 148 kts | 261° |
| 2026-04-25 03:32 | 11.21949 | 124.82437 | 5890 ft | 147 kts | 262° |
| 2026-04-25 03:32 | 11.21765 | 124.81411 | 5885 ft | 147 kts | 262° |
| 2026-04-25 03:33 | 11.21590 | 124.80390 | 5890 ft | 147 kts | 263° |
| 2026-04-25 03:33 | 11.21425 | 124.79367 | 5883 ft | 146 kts | 264° |
| 2026-04-25 03:33 | 11.21271 | 124.78348 | 5888 ft | 146 kts | 265° |
| 2026-04-25 03:33 | 11.21128 | 124.77324 | 5891 ft | 146 kts | 265° |
| 2026-04-25 03:34 | 11.20993 | 124.76300 | 5883 ft | 146 kts | 268° |
| 2026-04-25 03:34 | 11.20886 | 124.75273 | 5890 ft | 146 kts | 268° |
| 2026-04-25 03:34 | 11.20822 | 124.74243 | 5887 ft | 146 kts | 268° |
| 2026-04-25 03:34 | 11.20751 | 124.73206 | 5887 ft | 147 kts | 268° |
| 2026-04-25 03:35 | 11.20670 | 124.72170 | 5888 ft | 147 kts | 268° |
| 2026-04-25 03:35 | 11.20588 | 124.71130 | 5887 ft | 147 kts | 272° |
| 2026-04-25 03:35 | 11.20409 | 124.70147 | 5901 ft | 136 kts | 249° |
| 2026-04-25 03:35 | 11.19990 | 124.69293 | 5884 ft | 138 kts | 246° |
| 2026-04-25 03:36 | 11.19556 | 124.68392 | 5886 ft | 145 kts | 247° |
| 2026-04-25 03:36 | 11.19116 | 124.67459 | 5877 ft | 148 kts | 247° |
| 2026-04-25 03:36 | 11.18678 | 124.66513 | 5885 ft | 147 kts | 248° |
| 2026-04-25 03:36 | 11.18243 | 124.65564 | 5880 ft | 148 kts | 250° |
| 2026-04-25 03:37 | 11.17819 | 124.64608 | 5880 ft | 148 kts | 247° |
| 2026-04-25 03:37 | 11.17409 | 124.63648 | 5884 ft | 147 kts | 247° |
| 2026-04-25 03:37 | 11.17011 | 124.62687 | 5882 ft | 146 kts | 249° |
| 2026-04-25 03:37 | 11.16632 | 124.61722 | 5873 ft | 146 kts | 249° |
| 2026-04-25 03:38 | 11.16270 | 124.60758 | 5876 ft | 146 kts | 249° |
| 2026-04-25 03:38 | 11.15908 | 124.59789 | 5878 ft | 146 kts | 249° |
| 2026-04-25 03:38 | 11.15550 | 124.58826 | 5886 ft | 146 kts | 249° |
| 2026-04-25 03:39 | 11.14216 | 124.55220 | 5889 ft | 144 kts | 250° |
| 2026-04-25 03:39 | 11.13989 | 124.54569 | 5887 ft | 145 kts | 250° |
| 2026-04-25 03:40 | 11.13537 | 124.53291 | 5881 ft | 143 kts | 246° |
| 2026-04-25 03:40 | 11.12989 | 124.52100 | 5884 ft | 139 kts | 243° |
| 2026-04-25 03:40 | 11.12570 | 124.51217 | 5886 ft | 138 kts | 243° |
| 2026-04-25 03:40 | 11.12147 | 124.50340 | 5884 ft | 138 kts | 243° |
| 2026-04-25 03:41 | 11.11723 | 124.49466 | 5882 ft | 138 kts | 243° |
| 2026-04-25 03:41 | 11.11442 | 124.48889 | 5882 ft | 137 kts | 243° |
| 2026-04-25 03:41 | 11.11020 | 124.48013 | 5880 ft | 138 kts | 243° |
| 2026-04-25 03:41 | 11.10594 | 124.47132 | 5890 ft | 139 kts | 243° |
| 2026-04-25 03:42 | 11.10171 | 124.46247 | 5880 ft | 140 kts | 243° |
| 2026-04-25 03:42 | 11.09744 | 124.45355 | 5873 ft | 140 kts | 243° |
| 2026-04-25 03:42 | 11.09318 | 124.44459 | 5875 ft | 140 kts | 243° |
| 2026-04-25 03:42 | 11.08889 | 124.43568 | 5875 ft | 140 kts | 244° |
| 2026-04-25 03:43 | 11.08439 | 124.42672 | 5881 ft | 144 kts | 245° |
| 2026-04-25 03:43 | 11.07989 | 124.41755 | 5875 ft | 146 kts | 248° |
| 2026-04-25 03:43 | 11.07541 | 124.40829 | 5873 ft | 146 kts | 247° |
| 2026-04-25 03:43 | 11.07102 | 124.39898 | 5875 ft | 147 kts | 245° |
| 2026-04-25 03:44 | 11.06672 | 124.38952 | 5884 ft | 147 kts | 243° |
| 2026-04-25 03:44 | 11.06130 | 124.38119 | 5884 ft | 141 kts | 233° |
| 2026-04-25 03:44 | 11.05563 | 124.37290 | 5874 ft | 144 kts | 233° |
| 2026-04-25 03:44 | 11.04990 | 124.36454 | 5873 ft | 145 kts | 233° |
| 2026-04-25 03:45 | 11.04416 | 124.35612 | 5874 ft | 145 kts | 233° |
| 2026-04-25 03:45 | 11.03845 | 124.34768 | 5869 ft | 145 kts | 233° |
| 2026-04-25 03:45 | 11.03238 | 124.33977 | 5880 ft | 138 kts | 222° |
| 2026-04-25 03:45 | 11.02546 | 124.33285 | 5875 ft | 140 kts | 221° |